Time;durP1;ratioP1;P1;durP2;ratioP2;P2;SDS_P1;SDS_P2;PMS_P1;PMS_P2;Temp;Humidity;BMP_temperature;BMP_pressure;BME280_temperature;BME280_humidity;BME280_pressure;Samples;Min_cycle;Max_cycle;Signal;HPM_P1;HPM_P2
2022/10/08 00:01:15;;;;;;;10.68;2.58;;;13.10;99.90;;;;;;5031178;28;20116;-65
2022/10/08 00:03:43;;;;;;;7.15;1.77;;;13.10;99.90;;;;;;5000545;28;20085;-65
2022/10/08 00:06:11;;;;;;;10.68;2.08;;;13.30;99.90;;;;;;5030903;28;20049;-65
2022/10/08 00:08:40;;;;;;;6.93;2.22;;;13.20;99.90;;;;;;5032987;28;20045;-65
2022/10/08 00:11:12;;;;;;;7.78;1.70;;;13.00;99.90;;;;;;5029955;28;20484;-65
2022/10/08 00:13:40;;;;;;;5.03;1.58;;;13.00;99.90;;;;;;5015590;28;20046;-65
2022/10/08 00:16:08;;;;;;;5.18;1.45;;;13.10;99.90;;;;;;5015637;28;20054;-65
2022/10/08 00:18:34;;;;;;;8.50;1.95;;;12.90;99.90;;;;;;5016041;28;20045;-65
2022/10/08 00:21:04;;;;;;;10.05;2.13;;;13.10;99.90;;;;;;5031292;28;20384;-65
2022/10/08 00:23:32;;;;;;;3.70;1.58;;;12.80;99.90;;;;;;5035619;28;20049;-65
2022/10/08 00:26:02;;;;;;;4.57;1.50;;;12.90;99.90;;;;;;5034005;28;20056;-65
2022/10/08 00:28:28;;;;;;;5.97;1.33;;;;;;;;;;5025981;28;20042;-65
2022/10/08 00:30:54;;;;;;;5.63;1.35;;;12.80;99.90;;;;;;5015491;28;20037;-65
2022/10/08 00:33:20;;;;;;;6.22;1.30;;;12.80;99.90;;;;;;5022271;28;20083;-65
2022/10/08 00:35:46;;;;;;;6.78;1.20;;;12.80;99.90;;;;;;5021451;28;20049;-65
2022/10/08 00:38:11;;;;;;;5.82;1.63;;;12.80;99.90;;;;;;5014041;28;20451;-65
2022/10/08 00:40:44;;;;;;;3.35;0.95;;;12.90;99.90;;;;;;5020779;28;20124;-65
2022/10/08 00:43:15;;;;;;;4.28;1.23;;;13.00;99.90;;;;;;5021527;28;20520;-65
2022/10/08 00:45:45;;;;;;;4.70;1.50;;;13.00;99.90;;;;;;5030100;28;20037;-65
2022/10/08 00:48:24;;;;;;;6.30;2.08;;;13.10;99.90;;;;;;5022518;28;20037;-65
2022/10/08 00:50:50;;;;;;;4.97;1.10;;;13.10;99.90;;;;;;5017258;28;20045;-65
2022/10/08 00:53:16;;;;;;;6.25;1.42;;;13.00;99.90;;;;;;5015305;28;20112;-65
2022/10/08 00:55:42;;;;;;;2.67;1.33;;;12.90;99.90;;;;;;5013769;28;20120;-65
2022/10/08 00:58:15;;;;;;;5.40;1.48;;;12.80;99.90;;;;;;5024535;28;20038;-65
2022/10/08 01:00:43;;;;;;;2.83;1.30;;;;;;;;;;5034698;28;20503;-65
2022/10/08 01:03:08;;;;;;;3.90;1.40;;;12.70;99.90;;;;;;5023485;28;20042;-65
2022/10/08 01:05:59;;;;;;;5.30;1.45;;;12.80;99.90;;;;;;5030779;28;20087;-64
2022/10/08 01:08:27;;;;;;;3.40;1.35;;;12.80;99.90;;;;;;5022112;28;20538;-65
2022/10/08 01:11:02;;;;;;;4.72;1.27;;;12.70;99.90;;;;;;5031101;28;20041;-64
2022/10/08 01:13:40;;;;;;;7.32;2.25;;;12.70;99.90;;;;;;5034536;28;20080;-65
2022/10/08 01:16:29;;;;;;;5.88;1.60;;;12.70;99.90;;;;;;5032949;28;20518;-64
2022/10/08 01:19:35;;;;;;;5.13;1.55;;;12.60;99.90;;;;;;5023368;28;20107;-65
2022/10/08 01:22:34;;;;;;;2.65;1.50;;;12.80;99.90;;;;;;5026130;28;20517;-64
2022/10/08 01:25:31;;;;;;;5.05;1.35;;;12.70;99.90;;;;;;5034360;28;20113;-65
2022/10/08 01:28:27;;;;;;;5.18;1.80;;;12.70;99.90;;;;;;5032980;28;20040;-65
2022/10/08 01:31:23;;;;;;;3.85;1.65;;;12.90;99.90;;;;;;5014904;28;20496;-65
2022/10/08 01:33:53;;;;;;;7.05;1.83;;;12.80;99.90;;;;;;5014300;28;20536;-65
2022/10/08 01:36:21;;;;;;;7.68;1.77;;;13.00;99.90;;;;;;5020008;28;20041;-65
2022/10/08 01:38:52;;;;;;;5.53;1.80;;;12.70;99.90;;;;;;5020929;28;20506;-64
2022/10/08 01:41:21;;;;;;;4.95;1.80;;;12.80;99.90;;;;;;5013188;28;20042;-65
2022/10/08 01:43:59;;;;;;;9.57;2.47;;;12.80;99.90;;;;;;5025259;28;20041;-64
2022/10/08 01:46:28;;;;;;;6.07;2.08;;;12.80;99.90;;;;;;5014415;28;20078;-65
2022/10/08 01:49:00;;;;;;;5.30;1.95;;;12.90;99.90;;;;;;5014183;28;20041;-65
2022/10/08 01:51:31;;;;;;;6.30;3.00;;;12.80;99.90;;;;;;5013945;28;20045;-65
2022/10/08 01:54:01;;;;;;;4.57;1.75;;;12.90;99.90;;;;;;5025670;28;20113;-64
2022/10/08 01:56:30;;;;;;;6.20;2.28;;;12.80;99.90;;;;;;5015852;28;20107;-65
2022/10/08 01:59:09;;;;;;;11.10;2.15;;;12.80;99.90;;;;;;5012746;28;20117;-65
2022/10/08 02:01:57;;;;;;;4.18;2.00;;;12.70;99.90;;;;;;5013871;28;20127;-65
2022/10/08 02:04:32;;;;;;;7.55;2.45;;;12.50;99.90;;;;;;5027330;28;20051;-65
2022/10/08 02:07:10;;;;;;;8.13;2.45;;;12.80;99.90;;;;;;5026963;28;20125;-65
2022/10/08 02:09:50;;;;;;;7.32;3.92;;;12.70;99.90;;;;;;5012821;28;20554;-64
2022/10/08 02:12:16;;;;;;;10.90;2.45;;;12.80;99.90;;;;;;5033295;28;20487;-64
2022/10/08 02:14:54;;;;;;;8.05;2.47;;;12.70;99.90;;;;;;5019068;28;20037;-65
2022/10/08 02:17:29;;;;;;;7.90;2.25;;;12.70;99.90;;;;;;5013884;28;20076;-65
2022/10/08 02:20:24;;;;;;;5.00;2.33;;;12.50;99.90;;;;;;5012492;28;20136;-65
2022/10/08 02:23:16;;;;;;;8.30;2.17;;;12.50;99.90;;;;;;5013397;28;20042;-65
2022/10/08 02:25:56;;;;;;;11.57;2.50;;;12.60;99.90;;;;;;5020529;28;20033;-65
2022/10/08 02:28:53;;;;;;;8.30;1.95;;;12.50;99.90;;;;;;5033259;28;20053;-65
2022/10/08 02:31:27;;;;;;;7.38;1.95;;;12.30;99.90;;;;;;5013028;28;20396;-64
2022/10/08 02:34:00;;;;;;;7.78;2.08;;;12.50;99.90;;;;;;5013532;28;20044;-65
2022/10/08 02:36:30;;;;;;;8.40;2.08;;;12.50;99.90;;;;;;5012022;28;20049;-64
2022/10/08 02:39:05;;;;;;;5.55;2.05;;;12.50;99.90;;;;;;5013377;28;20045;-65
2022/10/08 02:41:39;;;;;;;8.23;2.00;;;12.30;99.90;;;;;;5012011;28;20049;-65
2022/10/08 02:44:10;;;;;;;5.23;2.10;;;12.30;99.90;;;;;;5015121;28;20048;-65
2022/10/08 02:46:39;;;;;;;5.55;2.17;;;12.20;99.90;;;;;;5023170;28;20068;-65
2022/10/08 02:49:07;;;;;;;7.53;1.92;;;12.30;99.90;;;;;;5012106;28;20053;-65
2022/10/08 02:51:37;;;;;;;9.45;2.10;;;12.20;99.90;;;;;;5020742;28;20034;-65
2022/10/08 02:54:05;;;;;;;12.48;2.75;;;12.00;99.90;;;;;;5030271;28;20068;-64
2022/10/08 02:56:36;;;;;;;7.38;1.70;;;11.90;99.90;;;;;;5012062;28;20049;-65
2022/10/08 02:59:03;;;;;;;5.95;2.60;;;11.90;99.90;;;;;;5011793;28;20070;-64
2022/10/08 03:01:38;;;;;;;4.82;1.60;;;11.90;99.90;;;;;;5013302;28;20045;-65
2022/10/08 03:04:18;;;;;;;6.93;2.40;;;11.90;99.90;;;;;;5026718;28;20518;-65
2022/10/08 03:06:44;;;;;;;8.27;1.85;;;11.90;99.90;;;;;;5012320;28;20042;-64
2022/10/08 03:09:11;;;;;;;9.80;2.30;;;11.80;99.90;;;;;;5026940;28;20038;-65
2022/10/08 03:11:37;;;;;;;10.75;2.30;;;12.00;99.90;;;;;;5011749;28;20109;-64
2022/10/08 03:14:08;;;;;;;8.50;1.60;;;11.80;99.90;;;;;;5012869;28;20053;-65
2022/10/08 03:16:41;;;;;;;5.95;2.20;;;12.10;99.90;;;;;;5011582;28;20467;-65
2022/10/08 03:19:09;;;;;;;5.82;3.25;;;12.00;99.90;;;;;;5027926;28;20057;-64
2022/10/08 03:21:38;;;;;;;11.63;2.60;;;12.10;99.90;;;;;;5013076;28;20092;-65
2022/10/08 03:24:05;;;;;;;11.93;2.40;;;11.90;99.90;;;;;;5013039;28;20046;-65
2022/10/08 03:26:31;;;;;;;6.18;2.45;;;12.00;99.90;;;;;;5029184;28;20069;-65
2022/10/08 03:28:56;;;;;;;6.07;2.13;;;11.90;99.90;;;;;;5026630;28;20124;-65
2022/10/08 03:31:22;;;;;;;12.40;2.17;;;12.00;99.90;;;;;;5012805;28;20077;-64
2022/10/08 03:33:52;;;;;;;7.35;2.25;;;12.00;99.90;;;;;;5012471;28;20038;-64
2022/10/08 03:36:19;;;;;;;9.95;2.55;;;11.80;99.90;;;;;;5011739;28;20120;-65
2022/10/08 03:38:45;;;;;;;10.88;2.42;;;12.00;99.90;;;;;;5012878;28;20050;-64
2022/10/08 03:41:11;;;;;;;12.90;3.10;;;12.00;99.90;;;;;;5012936;28;20041;-65
2022/10/08 03:43:37;;;;;;;10.40;3.08;;;12.00;99.90;;;;;;5025616;28;20044;-65
2022/10/08 03:46:03;;;;;;;10.85;2.45;;;12.00;99.90;;;;;;5028952;28;20089;-64
2022/10/08 03:48:28;;;;;;;12.60;3.72;;;12.10;99.90;;;;;;5016230;28;20496;-64
2022/10/08 03:50:56;;;;;;;10.20;2.92;;;12.10;99.90;;;;;;5016548;28;20034;-64
2022/10/08 03:53:23;;;;;;;9.27;2.33;;;12.10;99.90;;;;;;5015000;28;20488;-64
2022/10/08 03:55:49;;;;;;;5.95;2.40;;;12.10;99.90;;;;;;5032178;28;20037;-64
2022/10/08 03:58:15;;;;;;;10.98;2.28;;;12.10;99.90;;;;;;5026952;28;20494;-65
2022/10/08 04:00:41;;;;;;;15.13;2.83;;;12.20;99.90;;;;;;5016052;28;20546;-64
2022/10/08 04:03:07;;;;;;;9.57;2.78;;;12.20;99.90;;;;;;5020925;28;20052;-65
2022/10/08 04:05:33;;;;;;;10.55;2.60;;;12.00;99.90;;;;;;5023812;28;20404;-64
2022/10/08 04:07:59;;;;;;;7.15;2.88;;;12.00;99.90;;;;;;5020066;28;20037;-64
2022/10/08 04:10:24;;;;;;;9.82;2.50;;;12.20;99.90;;;;;;5035858;28;20034;-65
2022/10/08 04:12:50;;;;;;;6.90;2.75;;;12.30;99.90;;;;;;5019709;28;20034;-64
2022/10/08 04:15:16;;;;;;;11.38;2.55;;;12.20;99.90;;;;;;5015832;28;20073;-64
2022/10/08 04:17:41;;;;;;;7.30;2.13;;;12.20;99.90;;;;;;5028411;28;20092;-63
2022/10/08 04:20:08;;;;;;;8.25;2.60;;;12.20;99.90;;;;;;5029794;28;20042;-64
2022/10/08 04:22:33;;;;;;;13.57;2.45;;;12.10;99.90;;;;;;5015684;28;20034;-64
2022/10/08 04:24:59;;;;;;;8.38;2.42;;;12.20;99.90;;;;;;5015722;28;20447;-65
2022/10/08 04:27:25;;;;;;;8.35;2.30;;;12.00;99.90;;;;;;5021597;28;20073;-65
2022/10/08 04:29:50;;;;;;;8.10;2.90;;;12.20;99.90;;;;;;5023472;28;20074;-64
2022/10/08 04:32:16;;;;;;;14.65;3.78;;;12.20;99.90;;;;;;5014139;28;20038;-65
2022/10/08 04:34:41;;;;;;;11.63;2.78;;;12.10;99.90;;;;;;5015762;28;20038;-64
2022/10/08 04:37:07;;;;;;;10.55;2.20;;;12.10;99.90;;;;;;5014263;28;20045;-64
2022/10/08 04:39:32;;;;;;;7.78;2.10;;;12.10;99.90;;;;;;5015495;28;20041;-64
2022/10/08 04:41:58;;;;;;;9.35;2.20;;;12.20;99.90;;;;;;5015408;28;20044;-65
2022/10/08 04:44:24;;;;;;;11.35;2.67;;;12.20;99.90;;;;;;5020233;28;20041;-64
2022/10/08 04:46:49;;;;;;;13.73;2.63;;;12.20;99.90;;;;;;5022035;28;20068;-64
2022/10/08 04:49:15;;;;;;;9.85;2.13;;;12.00;99.90;;;;;;5015058;28;20049;-65
2022/10/08 04:51:40;;;;;;;12.88;2.92;;;12.10;99.90;;;;;;4997644;28;20045;-64
2022/10/08 04:54:06;;;;;;;14.10;1.98;;;12.10;99.90;;;;;;5030604;28;20387;-65
2022/10/08 04:56:34;;;;;;;12.05;2.47;;;11.90;99.90;;;;;;5026172;28;20545;-64
2022/10/08 04:59:00;;;;;;;10.40;2.20;;;;;;;;;;5014963;28;20092;-64
2022/10/08 05:01:27;;;;;;;13.98;2.50;;;11.80;99.90;;;;;;5015185;28;20048;-64
2022/10/08 05:03:55;;;;;;;11.48;2.72;;;11.80;99.90;;;;;;5027150;28;20033;-64
2022/10/08 05:06:23;;;;;;;9.45;1.70;;;11.80;99.90;;;;;;5014838;28;20048;-64
2022/10/08 05:08:49;;;;;;;11.02;2.28;;;11.70;99.90;;;;;;5015166;28;20460;-65
2022/10/08 05:11:15;;;;;;;9.48;2.40;;;11.80;99.90;;;;;;5030269;28;20061;-65
2022/10/08 05:13:41;;;;;;;15.45;3.60;;;11.60;99.90;;;;;;5024267;28;20044;-65
2022/10/08 05:16:12;;;;;;;7.88;1.80;;;11.50;99.90;;;;;;5014489;28;20089;-64
2022/10/08 05:18:39;;;;;;;7.85;1.63;;;11.60;99.90;;;;;;5013531;28;20046;-64
2022/10/08 05:21:06;;;;;;;11.13;2.00;;;11.50;99.90;;;;;;5014752;28;20042;-65
2022/10/08 05:23:32;;;;;;;5.68;2.25;;;11.50;99.90;;;;;;5014555;28;20034;-65
2022/10/08 05:25:58;;;;;;;13.02;2.55;;;11.50;99.90;;;;;;5026550;28;20087;-64
2022/10/08 05:28:23;;;;;;;12.43;2.92;;;11.30;99.90;;;;;;5030170;28;20431;-63
2022/10/08 05:30:49;;;;;;;8.60;2.40;;;11.40;99.90;;;;;;5013147;28;20480;-64
2022/10/08 05:33:14;;;;;;;7.80;1.95;;;11.30;99.90;;;;;;5014381;28;20049;-65
2022/10/08 05:35:40;;;;;;;9.90;3.25;;;11.10;99.90;;;;;;5014475;28;20034;-65
2022/10/08 05:38:05;;;;;;;8.10;1.98;;;11.30;99.90;;;;;;5014604;28;20120;-64
2022/10/08 05:40:31;;;;;;;7.82;1.83;;;11.20;99.90;;;;;;5014437;28;20034;-64
2022/10/08 05:42:56;;;;;;;6.97;2.05;;;11.20;99.90;;;;;;5013265;28;20045;-65
2022/10/08 05:45:22;;;;;;;9.70;2.22;;;11.10;99.90;;;;;;5028707;28;20045;-64
2022/10/08 05:47:48;;;;;;;11.10;2.20;;;11.10;99.90;;;;;;5032520;28;20128;-65
2022/10/08 05:50:14;;;;;;;9.75;2.30;;;11.00;99.90;;;;;;5033793;28;20496;-64
2022/10/08 05:52:40;;;;;;;6.93;2.75;;;11.20;99.90;;;;;;5019958;28;20030;-64
2022/10/08 05:55:06;;;;;;;7.53;2.03;;;11.20;99.90;;;;;;5022657;28;20092;-64
2022/10/08 05:57:32;;;;;;;10.43;2.58;;;11.10;99.90;;;;;;5028421;28;20450;-64
2022/10/08 05:59:57;;;;;;;6.72;1.90;;;11.00;99.90;;;;;;5024725;28;20046;-65
2022/10/08 06:02:23;;;;;;;10.43;1.92;;;10.90;99.90;;;;;;5013966;28;20042;-65
2022/10/08 06:04:49;;;;;;;9.40;1.80;;;11.30;99.90;;;;;;5012566;28;20499;-65
2022/10/08 06:07:15;;;;;;;7.70;1.70;;;10.90;99.90;;;;;;5011906;28;20041;-65
2022/10/08 06:09:41;;;;;;;7.20;2.35;;;;;;;;;;5012425;28;20454;-63
2022/10/08 06:12:08;;;;;;;9.05;2.35;;;11.10;99.90;;;;;;5012764;28;20046;-65
2022/10/08 06:14:34;;;;;;;12.95;1.83;;;11.20;99.90;;;;;;5012301;28;20381;-64
2022/10/08 06:17:00;;;;;;;13.48;1.67;;;11.10;99.90;;;;;;5012626;28;20060;-64
2022/10/08 06:19:26;;;;;;;9.85;2.25;;;11.10;99.90;;;;;;5013788;28;20570;-64
2022/10/08 06:21:51;;;;;;;8.35;2.10;;;11.10;99.90;;;;;;5033042;28;20041;-65
2022/10/08 06:24:17;;;;;;;13.98;2.95;;;11.20;99.90;;;;;;5031960;28;20072;-64
2022/10/08 06:26:43;;;;;;;9.10;2.42;;;11.40;99.90;;;;;;5033103;28;20056;-64
2022/10/08 06:29:14;;;;;;;8.13;2.42;;;11.20;99.90;;;;;;5033099;28;20041;-65
2022/10/08 06:31:41;;;;;;;15.32;2.40;;;11.20;99.90;;;;;;5031582;28;20384;-64
2022/10/08 06:34:06;;;;;;;9.57;1.88;;;11.30;99.90;;;;;;5025763;28;20073;-65
2022/10/08 06:36:33;;;;;;;11.65;2.35;;;11.20;99.90;;;;;;5012347;28;20451;-65
2022/10/08 06:39:01;;;;;;;7.70;2.47;;;11.20;99.90;;;;;;5013294;28;20044;-64
2022/10/08 06:41:34;;;;;;;7.43;2.05;;;11.40;99.90;;;;;;5025261;28;20419;-64
2022/10/08 06:44:05;;;;;;;10.90;2.33;;;11.50;99.90;;;;;;5028499;28;20468;-65
2022/10/08 06:46:31;;;;;;;10.82;2.45;;;11.50;99.90;;;;;;5012859;28;20128;-65
2022/10/08 06:48:58;;;;;;;9.63;2.30;;;11.70;99.90;;;;;;5031311;28;20037;-64
2022/10/08 06:51:23;;;;;;;12.95;2.55;;;11.70;99.90;;;;;;5032220;28;20033;-64
2022/10/08 06:53:55;;;;;;;15.18;2.97;;;12.00;99.90;;;;;;5031286;28;20056;-64
2022/10/08 06:56:22;;;;;;;8.75;2.42;;;11.90;99.90;;;;;;5030321;28;20555;-65
2022/10/08 06:58:47;;;;;;;14.32;7.45;;;12.00;99.90;;;;;;5032298;28;20396;-64
2022/10/08 07:01:17;;;;;;;10.60;3.35;;;12.00;99.90;;;;;;5030589;28;20071;-64
2022/10/08 07:03:43;;;;;;;10.02;2.92;;;12.10;99.90;;;;;;5014010;28;20447;-64
2022/10/08 07:06:10;;;;;;;11.35;2.40;;;12.10;99.90;;;;;;5012562;28;20042;-64
2022/10/08 07:08:36;;;;;;;13.18;2.67;;;12.10;99.90;;;;;;5031184;28;20051;-65
2022/10/08 07:11:03;;;;;;;10.18;2.15;;;12.10;99.90;;;;;;5031156;28;20038;-65
2022/10/08 07:13:29;;;;;;;4.95;1.75;;;12.10;99.90;;;;;;5032291;28;20045;-65
2022/10/08 07:16:26;;;;;;;9.35;2.17;;;12.10;99.90;;;;;;5032539;28;20051;-65
2022/10/08 07:18:54;;;;;;;14.32;2.38;;;12.10;99.90;;;;;;5018871;28;20484;-65
2022/10/08 07:21:21;;;;;;;7.85;1.67;;;12.10;99.90;;;;;;5022992;28;20050;-65
2022/10/08 07:23:47;;;;;;;6.45;1.90;;;12.00;99.90;;;;;;5035456;28;20042;-65
2022/10/08 07:26:21;;;;;;;6.80;1.60;;;12.00;99.90;;;;;;5035581;28;20492;-65
2022/10/08 07:28:56;;;;;;;15.77;2.73;;;12.00;99.90;;;;;;5032690;28;20434;-64
2022/10/08 07:31:25;;;;;;;9.85;2.00;;;12.20;99.90;;;;;;4998534;28;20273;-65
2022/10/08 07:33:51;;;;;;;9.95;2.33;;;12.30;99.90;;;;;;5015824;28;20034;-65
2022/10/08 07:36:19;;;;;;;6.57;1.83;;;12.40;99.90;;;;;;5014524;28;20503;-65
2022/10/08 07:38:46;;;;;;;10.80;2.30;;;;;;;;;;5031335;28;20108;-65
2022/10/08 07:41:13;;;;;;;15.02;2.22;;;12.70;99.90;;;;;;5005977;28;20384;-67
2022/10/08 07:43:42;;;;;;;14.65;2.63;;;13.10;99.90;;;;;;5034375;28;20045;-65
2022/10/08 07:46:11;;;;;;;11.80;1.95;;;13.00;99.90;;;;;;5031290;28;20048;-65
2022/10/08 07:48:37;;;;;;;6.82;1.30;;;13.30;99.90;;;;;;5015849;28;20504;-65
2022/10/08 07:51:21;;;;;;;9.70;2.25;;;13.40;99.90;;;;;;5015913;28;20041;-65
2022/10/08 07:53:47;;;;;;;10.80;1.83;;;13.60;99.90;;;;;;5028426;28;20045;-64
2022/10/08 07:56:14;;;;;;;6.65;1.50;;;13.50;99.90;;;;;;5016545;28;20038;-64
2022/10/08 07:58:40;;;;;;;8.18;2.25;;;13.40;99.90;;;;;;5015778;28;20053;-64
2022/10/08 08:01:12;;;;;;;5.95;1.20;;;13.40;99.90;;;;;;5015569;28;20034;-64
2022/10/08 08:03:38;;;;;;;8.23;1.48;;;13.70;99.90;;;;;;4998095;28;20071;-64
2022/10/08 08:06:08;;;;;;;9.18;1.88;;;13.60;99.90;;;;;;5015380;28;20096;-65
2022/10/08 08:08:35;;;;;;;6.55;2.33;;;13.70;99.90;;;;;;5015699;28;20096;-65
2022/10/08 08:11:02;;;;;;;7.28;1.90;;;13.90;99.90;;;;;;5016532;28;20034;-66
2022/10/08 08:13:29;;;;;;;9.48;1.92;;;14.10;99.90;;;;;;5033946;28;20087;-66
2022/10/08 08:16:00;;;;;;;6.55;1.30;;;14.40;99.90;;;;;;5021486;28;20050;-65
2022/10/08 08:18:30;;;;;;;7.35;1.38;;;14.20;99.90;;;;;;5023157;28;20049;-66
2022/10/08 08:21:01;;;;;;;9.18;1.55;;;15.10;99.90;;;;;;5034947;28;20137;-67
2022/10/08 08:23:31;;;;;;;9.77;1.30;;;15.40;99.90;;;;;;5033640;28;20129;-66
2022/10/08 08:26:01;;;;;;;5.53;1.25;;;16.20;99.90;;;;;;5034854;28;20076;-65
2022/10/08 08:28:27;;;;;;;10.43;1.48;;;16.80;99.90;;;;;;5033336;28;20045;-65
2022/10/08 08:30:53;;;;;;;8.73;1.90;;;17.40;99.90;;;;;;5032236;28;20037;-65
2022/10/08 08:33:19;;;;;;;7.20;1.17;;;17.40;99.90;;;;;;5033650;28;20257;-66
2022/10/08 08:35:52;;;;;;;9.23;1.45;;;17.10;99.90;;;;;;5033024;28;20037;-66
2022/10/08 08:38:18;;;;;;;9.57;1.02;;;17.60;99.90;;;;;;5025014;28;20034;-66
2022/10/08 08:40:43;;;;;;;12.35;1.52;;;17.60;99.90;;;;;;5034519;28;20052;-66
2022/10/08 08:43:10;;;;;;;4.80;1.10;;;19.30;99.90;;;;;;5032999;28;20045;-66
2022/10/08 08:45:40;;;;;;;7.22;1.20;;;18.00;99.90;;;;;;5033036;28;20041;-66
2022/10/08 08:48:15;;;;;;;5.70;0.90;;;18.60;99.90;;;;;;5033076;28;20484;-65
2022/10/08 08:50:43;;;;;;;8.23;3.38;;;19.20;99.90;;;;;;5034599;28;20048;-71
2022/10/08 08:53:10;;;;;;;4.43;1.00;;;19.00;99.90;;;;;;5034519;28;20073;-65
2022/10/08 08:55:44;;;;;;;8.35;1.90;;;19.40;99.90;;;;;;5033198;28;20042;-63
2022/10/08 08:58:43;;;;;;;6.32;1.00;;;19.70;99.90;;;;;;5032728;28;20484;-66
2022/10/08 09:01:16;;;;;;;10.77;1.58;;;20.20;99.90;;;;;;5034243;28;20041;-66
2022/10/08 09:03:49;;;;;;;5.75;0.90;;;20.20;99.90;;;;;;5032877;28;20037;-66
2022/10/08 09:06:21;;;;;;;4.22;0.85;;;20.50;99.90;;;;;;5034137;28;20053;-65
2022/10/08 09:08:55;;;;;;;3.33;0.70;;;20.50;99.90;;;;;;5033324;28;20041;-65
2022/10/08 09:11:23;;;;;;;11.60;0.97;;;20.40;99.90;;;;;;5032600;28;20508;-66
2022/10/08 09:14:13;;;;;;;4.40;0.95;;;20.40;99.90;;;;;;5004357;28;20309;-66
2022/10/08 09:16:39;;;;;;;3.90;0.68;;;21.50;99.90;;;;;;5015000;28;20069;-65
2022/10/08 09:19:05;;;;;;;7.78;2.05;;;21.50;99.90;;;;;;5013318;28;20108;-66
2022/10/08 09:21:32;;;;;;;5.72;1.15;;;23.00;99.90;;;;;;5014011;28;20040;-65
2022/10/08 09:23:59;;;;;;;5.97;1.02;;;24.70;99.90;;;;;;5014208;28;20042;-66
2022/10/08 09:26:34;;;;;;;5.22;0.60;;;25.40;99.90;;;;;;5017128;28;20049;-67
2022/10/08 09:29:00;;;;;;;;;;;26.80;99.90;;;;;;5032253;28;20046;-67
2022/10/08 09:31:41;;;;;;;5.03;0.88;;;27.50;99.90;;;;;;5034372;28;20318;-67
2022/10/08 09:34:09;;;;;;;10.20;1.00;;;28.50;99.90;;;;;;5033890;28;20553;-67
2022/10/08 09:37:04;;;;;;;5.68;0.80;;;29.00;99.90;;;;;;5032954;28;20049;-67
2022/10/08 09:39:32;;;;;;;5.75;0.80;;;26.50;99.90;;;;;;5033741;28;20045;-67
2022/10/08 09:42:07;;;;;;;2.80;0.40;;;25.10;99.90;;;;;;5033094;28;20496;-67
2022/10/08 09:44:43;;;;;;;9.68;0.90;;;24.30;99.90;;;;;;5033067;28;20509;-67
2022/10/08 09:47:14;;;;;;;7.78;0.70;;;22.90;99.90;;;;;;5034017;28;20038;-67
2022/10/08 09:49:40;;;;;;;4.07;0.77;;;22.20;99.90;;;;;;5032482;28;20041;-67
2022/10/08 09:52:27;;;;;;;6.00;0.73;;;24.50;99.90;;;;;;5032492;28;20450;-67
2022/10/08 09:54:57;;;;;;;5.13;0.60;;;26.30;99.90;;;;;;5022066;28;20034;-67
2022/10/08 09:57:22;;;;;;;3.50;0.90;;;27.00;99.90;;;;;;5032500;28;20524;-67
2022/10/08 09:59:52;;;;;;;3.40;0.40;;;27.50;99.90;;;;;;5033607;28;20041;-67
2022/10/08 10:02:37;;;;;;;3.88;0.40;;;28.20;99.90;;;;;;5131230;27;20436;-66
2022/10/08 10:05:20;;;;;;;9.48;0.60;;;25.60;99.90;;;;;;5109430;28;20044;-66
2022/10/08 10:07:45;;;;;;;7.40;0.90;;;24.10;99.90;;;;;;5110675;28;20077;-65
2022/10/08 10:10:20;;;;;;;8.00;1.02;;;22.60;99.90;;;;;;5110675;28;20031;-66
2022/10/08 10:12:50;;;;;;;5.38;0.65;;;22.70;99.90;;;;;;5112496;28;20040;-66
2022/10/08 10:15:25;;;;;;;4.55;0.80;;;24.00;99.90;;;;;;5080247;28;20122;-66
2022/10/08 10:17:58;;;;;;;6.47;0.68;;;25.60;99.90;;;;;;5102601;28;20524;-66
2022/10/08 10:20:41;;;;;;;5.88;1.20;;;24.30;99.90;;;;;;5103363;28;20054;-65
2022/10/08 10:23:25;;;;;;;10.55;1.08;;;23.00;99.90;;;;;;5090654;28;20036;-65
2022/10/08 10:26:02;;;;;;;6.07;0.75;;;22.20;99.90;;;;;;5090361;28;20043;-64
2022/10/08 10:28:56;;;;;;;4.05;0.43;;;21.30;99.90;;;;;;5088905;28;20029;-65
2022/10/08 10:31:24;;;;;;;6.22;0.65;;;20.30;99.90;;;;;;5088638;28;20040;-64
2022/10/08 10:34:03;;;;;;;6.93;1.05;;;19.90;99.90;;;;;;5072072;28;20124;-64
2022/10/08 10:36:33;;;;;;;8.75;0.88;;;19.40;99.90;;;;;;5087551;28;20044;-64
2022/10/08 10:39:16;;;;;;;4.70;1.17;;;19.20;99.90;;;;;;5094982;28;20509;-64
2022/10/08 10:41:49;;;;;;;6.70;0.77;;;18.80;99.90;;;;;;5089639;28;20040;-64
2022/10/08 10:44:21;;;;;;;5.97;0.70;;;18.50;99.90;;;;;;5102701;28;20032;-64
2022/10/08 10:46:55;;;;;;;7.50;1.13;;;18.10;99.90;;;;;;5109464;28;20043;-64
2022/10/08 10:49:34;;;;;;;3.75;0.57;;;17.80;99.90;;;;;;5109509;28;20031;-64
2022/10/08 10:52:32;;;;;;;5.38;1.02;;;17.50;99.90;;;;;;5108302;28;20440;-64
2022/10/08 10:55:09;;;;;;;3.17;0.57;;;17.60;99.90;;;;;;5097407;28;20405;-64
2022/10/08 10:57:52;;;;;;;8.48;1.00;;;17.10;99.90;;;;;;5108553;28;20043;-64
2022/10/08 11:00:24;;;;;;;8.05;0.90;;;17.10;99.90;;;;;;5109601;28;20047;-65
2022/10/08 11:02:55;;;;;;;8.02;1.50;;;16.90;99.90;;;;;;5109770;28;20044;-64
2022/10/08 11:05:31;;;;;;;5.47;0.82;;;16.70;99.90;;;;;;5108213;28;20036;-65
2022/10/08 11:08:15;;;;;;;5.15;1.00;;;16.80;99.90;;;;;;5108786;28;20434;-64
2022/10/08 11:11:23;;;;;;;9.95;1.48;;;16.80;99.90;;;;;;5108202;28;20047;-64
2022/10/08 11:13:59;;;;;;;7.72;1.27;;;16.80;99.90;;;;;;5080840;28;20070;-64
2022/10/08 11:16:46;;;;;;;6.57;1.00;;;16.80;99.90;;;;;;5084706;28;20044;-64
2022/10/08 11:19:35;;;;;;;8.10;0.95;;;16.90;99.90;;;;;;5076739;28;20032;-65
2022/10/08 11:22:23;;;;;;;6.50;0.98;;;16.80;99.90;;;;;;5075900;28;20048;-64
2022/10/08 11:24:56;;;;;;;9.13;2.00;;;16.60;99.90;;;;;;5077134;28;20094;-64
2022/10/08 11:27:24;;;;;;;5.85;0.88;;;16.40;99.90;;;;;;5073569;28;20071;-66
2022/10/08 11:30:13;;;;;;;9.13;1.27;;;16.30;99.90;;;;;;5085300;28;20078;-66
2022/10/08 11:32:43;;;;;;;3.95;0.70;;;16.20;99.90;;;;;;5081201;28;20046;-66
2022/10/08 11:35:24;;;;;;;8.55;1.15;;;15.90;99.90;;;;;;5094835;28;20036;-66
2022/10/08 11:38:27;;;;;;;6.65;1.00;;;15.80;99.90;;;;;;5082320;28;20123;-66
2022/10/08 11:41:20;;;;;;;8.75;1.27;;;15.80;99.90;;;;;;5094493;28;20040;-66
2022/10/08 11:43:56;;;;;;;9.20;1.45;;;15.50;99.90;;;;;;5093039;28;20044;-66
2022/10/08 11:46:32;;;;;;;7.05;1.13;;;15.80;99.90;;;;;;5081070;28;20504;-67
2022/10/08 11:49:00;;;;;;;6.88;1.15;;;15.80;99.90;;;;;;5093068;28;20037;-66
2022/10/08 11:51:29;;;;;;;8.02;1.13;;;15.50;99.90;;;;;;5086077;28;20044;-66
2022/10/08 11:54:03;;;;;;;8.02;1.17;;;15.50;99.90;;;;;;5087139;28;20036;-67
2022/10/08 11:56:29;;;;;;;7.18;1.38;;;;;;;;;;5093046;28;20123;-66
2022/10/08 11:59:06;;;;;;;10.00;1.52;;;15.50;99.90;;;;;;5094074;28;20093;-66
2022/10/08 12:01:31;;;;;;;11.13;1.10;;;15.50;99.90;;;;;;5082293;28;20105;-66
2022/10/08 12:04:18;;;;;;;7.20;1.60;;;15.60;99.90;;;;;;5093715;28;20448;-67
2022/10/08 12:06:46;;;;;;;5.85;0.93;;;15.60;99.90;;;;;;5081935;28;20044;-66
2022/10/08 12:09:22;;;;;;;7.32;0.90;;;15.70;99.90;;;;;;5092886;28;20128;-66
2022/10/08 12:11:50;;;;;;;6.72;0.90;;;15.80;99.90;;;;;;5090037;28;20040;-66
2022/10/08 12:14:17;;;;;;;7.03;1.05;;;;;;;;;;5091222;28;20548;-67
2022/10/08 12:16:55;;;;;;;9.07;1.35;;;15.90;99.90;;;;;;5076056;28;20040;-66
2022/10/08 12:19:33;;;;;;;6.82;1.13;;;16.10;99.90;;;;;;5090167;28;20510;-66
2022/10/08 12:22:02;;;;;;;5.68;0.95;;;16.10;99.90;;;;;;5092780;28;20044;-66
2022/10/08 12:24:37;;;;;;;9.25;1.52;;;16.10;99.90;;;;;;5082238;28;20486;-66
2022/10/08 12:27:22;;;;;;;6.40;1.38;;;16.20;99.90;;;;;;5090694;28;20036;-66
2022/10/08 12:30:13;;;;;;;8.35;1.35;;;16.40;99.90;;;;;;5092723;28;20457;-66
2022/10/08 12:32:38;;;;;;;8.73;1.10;;;16.30;99.90;;;;;;5073527;28;20394;-67
2022/10/08 12:35:04;;;;;;;8.75;1.15;;;16.30;99.90;;;;;;5073317;28;20036;-67
2022/10/08 12:37:48;;;;;;;7.55;1.02;;;16.10;99.90;;;;;;5092601;28;20044;-68
2022/10/08 12:40:38;;;;;;;5.70;0.93;;;16.10;99.90;;;;;;5092316;28;20502;-67
2022/10/08 12:43:21;;;;;;;6.63;0.90;;;15.90;99.90;;;;;;5093768;28;20032;-69
2022/10/08 12:46:17;;;;;;;5.38;0.88;;;16.00;99.90;;;;;;5093282;28;20419;-68
2022/10/08 12:48:50;;;;;;;7.38;1.10;;;16.00;99.90;;;;;;5083773;28;20072;-66
2022/10/08 12:51:19;;;;;;;7.78;1.30;;;15.90;99.90;;;;;;5084764;28;20036;-66
2022/10/08 12:53:45;;;;;;;3.00;0.70;;;16.10;99.90;;;;;;5094865;28;20174;-65
2022/10/08 12:56:27;;;;;;;6.05;1.10;;;16.20;99.90;;;;;;5097412;28;20077;-65
2022/10/08 12:58:59;;;;;;;8.73;1.27;;;16.20;99.90;;;;;;5096581;28;20386;-65
2022/10/08 13:01:25;;;;;;;8.38;1.42;;;16.20;99.90;;;;;;5081231;28;20058;-65
2022/10/08 13:04:15;;;;;;;7.47;1.05;;;16.20;99.90;;;;;;5089844;28;20048;-65
2022/10/08 13:06:41;;;;;;;4.28;0.75;;;16.10;99.90;;;;;;5090653;28;20516;-65
2022/10/08 13:09:24;;;;;;;8.82;1.42;;;16.10;99.90;;;;;;5096365;28;20032;-66
2022/10/08 13:11:49;;;;;;;8.60;1.10;;;15.90;99.90;;;;;;5091283;28;20051;-65